Main page
METAR-TAF:

METAR-TAF

Airports :

London Southend Airport

London-Southend, England

latitude: 51-34N, longitude: 000-42E, elevation: 15 m

Current weather observation

The report was made 31 minutes ago, at 19:50 UTC
Wind 10 kt from the Southwest
Temperature 14°C
Humidity 94%
Pressure 1007 hPa
Visibility 10 km or more
Few clouds at a height of 1100 ft

METAR: EGMC 281950Z 23010KT 9999 FEW011 14/13 Q1007

Time: 21:21 (20:21 UTC)

Forecast

The report was made 3 hours and 17 minutes ago, at 17:04 UTC
Forecast valid from 28 at 18 UTC to 29 at 03 UTC
Wind 12 kt from the Southwest
Visibility 10 km or more
Scattered clouds at a height of 4000 ft
Temporary
from 28 at 18 UTC to 28 at 20 UTC
Visibility: 7000 m
rain showers
Probability 30% :
Temporary
from 28 at 18 UTC to 28 at 19 UTC
Wind 15 kt from the West/Southwest with gusts up to 25 kt
Visibility: 3000 m
heavy rain showers

TAF: EGMC 281704Z 2818/2903 23012KT 9999 SCT040 TEMPO 2818/2820 7000 SHRA PROB30 TEMPO 2818/2819 24015G25KT 3000 +SHRA

Weather observations and forecasts of more than 4000 airports (METAR and TAF reports).

The available stations are represented by yellow and red dots on the map.

Hover mouse over dot to see the name of the station.

Then click to see weather observations and forecasts.

To change the map : click on the green buttons with a black cross to zoom in, on the green button with a dash to zoom out, or on the green arrows for adjacent maps.


METAR-TAF: